Union Manta — ORKJ — position and weather

sailwx.info

Track history (hours):
 
Tides and Currents Weather Stations Pressure Air Temp Water Temp Dewpoint Dewpoint Depression Visibility Wind Speed Wind Dir Waves Ship Positions

Union Manta

Last reported at 2017-Jun-22 07:24 UTC. Time now 2017-Jun-23 10:33 UTC.
Position N 54°01' E 006°16'.

Length 75 m; draft 6.5 m.

Type: Tow > 200 m length. MMSI: 205340000.

Date/timePositionNaut miles runAvg speedWind from/ knotsBaromVisibWave heightAir tempDewpointWater temp
2017-Jun-22 07:24N 54°01' E 006°16'5 0.6
2017-Jun-21 22:55N 53°56' E 006°16'1 1.6
2017-Jun-21 22:19N 53°57' E 006°16'1 1.6
2017-Jun-21 21:57N 53°58' E 006°16'65 2.1
2017-Jun-20 14:47N 55°02' E 006°36'2 5.8
2017-Jun-20 14:30N 55°03' E 006°36'6 5.7
2017-Jun-20 13:25N 55°09' E 006°36'3 5.6
2017-Jun-20 12:50N 55°13' E 006°36'2 5.6
2017-Jun-20 12:30N 55°15' E 006°37'3 5.5
2017-Jun-20 12:00N 55°17' E 006°37'3 5.3
2017-Jun-20 11:28N 55°20' E 006°38'3 5.3
2017-Jun-20 10:58N 55°23' E 006°39'3 5.2
2017-Jun-20 10:28N 55°25' E 006°41'7 5.1
2017-Jun-20 09:07N 55°32' E 006°45'2 5.2
2017-Jun-20 08:43N 55°34' E 006°47'1 5.3
2017-Jun-20 08:28N 55°35' E 006°48'160 6.1
2017-Jun-19 06:28N 57°48' E 009°27'3 5.9
2017-Jun-19 06:00N 57°49' E 009°32'5 6.0
2017-Jun-19 05:13N 57°51' E 009°40'1 6.1
2017-Jun-19 04:58N 57°51' E 009°43'3 6.2
2017-Jun-19 04:29N 57°53' E 009°48'3 6.1
2017-Jun-19 04:00N 57°54' E 009°54'3 6.3
2017-Jun-19 03:30N 57°55' E 009°59'3 6.1
2017-Jun-19 03:00N 57°55' E 010°05'3 6.0
2017-Jun-19 02:30N 57°55' E 010°11'3 5.5
2017-Jun-19 02:00N 57°55' E 010°16'2 4.7
2017-Jun-19 01:29N 57°55' E 010°20'2 4.5
2017-Jun-19 01:00N 57°55' E 010°24'2 4.3
2017-Jun-19 00:30N 57°55' E 010°28'2 4.1
2017-Jun-19 00:00N 57°55' E 010°32'2 3.9
2017-Jun-18 23:30N 57°55' E 010°36'2 3.7
2017-Jun-18 23:00N 57°55' E 010°39'2 3.6
2017-Jun-18 22:30N 57°55' E 010°43'2 3.7
2017-Jun-18 22:00N 57°55' E 010°46'3 5.0
2017-Jun-18 21:30N 57°53' E 010°50'3 5.1
2017-Jun-18 21:00N 57°51' E 010°53'3 5.4
2017-Jun-18 20:30N 57°49' E 010°57'3 5.7
2017-Jun-18 20:00N 57°47' E 010°60'3 5.6
2017-Jun-18 19:30N 57°44' E 011°02'3 5.1
2017-Jun-18 19:00N 57°42' E 011°05'3 5.2
2017-Jun-18 18:30N 57°41' E 011°08'3 6.2
2017-Jun-18 18:00N 57°38' E 011°11'3 6.5
2017-Jun-18 17:30N 57°35' E 011°15'3 6.4
2017-Jun-18 17:00N 57°33' E 011°19'3 6.8
2017-Jun-18 16:30N 57°30' E 011°23'4 7.0
2017-Jun-18 15:59N 57°27' E 011°27'3 6.8
2017-Jun-18 15:30N 57°24' E 011°29'3 6.6
2017-Jun-18 15:00N 57°21' E 011°31'7 6.5
2017-Jun-18 13:59N 57°15' E 011°35'33 6.9
2017-Jun-18 09:12N 56°44' E 011°52'106 6.3
2017-Jun-17 16:21N 55°02' E 010°60'2 6.4
2017-Jun-17 16:00N 54°60' E 010°59'3 5.9
2017-Jun-17 15:30N 54°57' E 010°57'3 5.4
2017-Jun-17 15:00N 54°55' E 010°54'3 5.8
2017-Jun-17 14:30N 54°52' E 010°53'5 5.4
2017-Jun-17 13:30N 54°46' E 010°53'3 6.2
2017-Jun-17 13:00N 54°43' E 010°53'3 5.5
2017-Jun-17 12:30N 54°41' E 010°56'3 6.3
2017-Jun-17 12:00N 54°40' E 011°01'3 6.0
2017-Jun-17 11:30N 54°39' E 011°06'3 5.6
2017-Jun-17 11:00N 54°37' E 011°10'3 5.5
2017-Jun-17 10:30N 54°36' E 011°14'3 5.4
2017-Jun-17 10:00N 54°34' E 011°18'5 5.3
2017-Jun-17 08:59N 54°32' E 011°26'13 1.0
2017-Jun-16 19:32N 54°19' E 011°36'0 1.0
2017-Jun-16 19:30N 54°19' E 011°36'0 0.5
2017-Jun-16 19:00N 54°19' E 011°36'0 0.3
2017-Jun-16 18:30N 54°19' E 011°36'0 0.6
2017-Jun-16 18:00N 54°19' E 011°37'1 0.8
2017-Jun-16 17:02N 54°20' E 011°38'0 1.0
2017-Jun-16 17:00N 54°20' E 011°38'0 0.7
2017-Jun-16 16:30N 54°20' E 011°39'2 1.1
2017-Jun-16 15:02N 54°19' E 011°41'0 2.2
2017-Jun-16 15:00N 54°19' E 011°41'1 2.2
2017-Jun-16 14:30N 54°18' E 011°43'5 2.2
2017-Jun-16 12:17N 54°20' E 011°51'1 5.0
2017-Jun-16 12:00N 54°21' E 011°49'3 5.5
2017-Jun-16 11:30N 54°22' E 011°45'7 3.8
2017-Jun-16 09:47N 54°21' E 011°34'1 2.0
2017-Jun-16 09:30N 54°21' E 011°34'2 2.3
2017-Jun-16 08:47N 54°20' E 011°36'1 2.5
2017-Jun-16 08:30N 54°19' E 011°37'1 2.4
2017-Jun-16 08:00N 54°19' E 011°39'1 2.3
2017-Jun-16 07:30N 54°18' E 011°41'1 1.9
2017-Jun-16 07:00N 54°18' E 011°42'2 1.8
2017-Jun-16 06:02N 54°18' E 011°45'0 1.6
2017-Jun-16 06:00N 54°18' E 011°45'0 1.0
2017-Jun-16 05:30N 54°18' E 011°46'1 1.2
2017-Jun-16 05:00N 54°18' E 011°47'1 1.6
2017-Jun-16 04:18N 54°18' E 011°49'1 2.2
2017-Jun-16 04:00N 54°19' E 011°49'1 2.4
2017-Jun-16 03:30N 54°20' E 011°50'2 4.5
2017-Jun-16 03:00N 54°21' E 011°47'8 5.2
2017-Jun-16 01:32N 54°22' E 011°34'0 4.6
2017-Jun-16 01:30N 54°22' E 011°34'8 1.7
2017-Jun-15 20:45N 54°21' E 011°47'1 2.7
2017-Jun-15 20:26N 54°21' E 011°46'1 2.6
2017-Jun-15 19:59N 54°22' E 011°44'1 2.8
2017-Jun-15 19:30N 54°21' E 011°42'3 1.1
2017-Jun-15 16:47N 54°20' E 011°37'1 3.7
2017-Jun-15 16:30N 54°20' E 011°39'2 3.7
2017-Jun-15 16:00N 54°19' E 011°41'5 3.8
2017-Jun-15 14:46N 54°17' E 011°49'3 3.4
2017-Jun-15 13:47N 54°16' E 011°54'1 3.1
2017-Jun-15 13:26N 54°16' E 011°56'3 3.4
2017-Jun-15 12:41N 54°15' E 012°00'1 4.6
2017-Jun-15 12:28N 54°14' E 012°01'2 3.8
2017-Jun-15 11:59N 54°13' E 012°03'2 2.3
2017-Jun-15 10:55N 54°11' E 012°05'1 0.1
2017-Jun-15 01:01N 54°10' E 012°06'0 0.0
2017-Jun-15 00:25N 54°10' E 012°06'0 0.0
2017-Jun-14 21:31N 54°10' E 012°06'0 0.0
2017-Jun-14 21:01N 54°10' E 012°06'0 0.0
2017-Jun-14 14:12N 54°10' E 012°06'0 0.0
2017-Jun-14 12:42N 54°10' E 012°06'0 0.0
2017-Jun-14 12:30N 54°10' E 012°06'0 0.0
2017-Jun-13 13:15N 54°10' E 012°06'0 0.0
2017-Jun-13 13:00N 54°10' E 012°06'2 0.4
2017-Jun-13 08:09N 54°12' E 012°05'211.4
2017-Jun-13 08:00N 54°14' E 012°03'6 5.7
2017-Jun-13 07:01N 54°19' E 011°59'0 7.3
2017-Jun-13 07:00N 54°19' E 011°59'4 7.3
2017-Jun-13 06:30N 54°21' E 011°54'3 5.9
2017-Jun-13 06:00N 54°23' E 011°51'3 5.6
2017-Jun-13 05:30N 54°25' E 011°47'21 6.1
2017-Jun-13 02:05N 54°34' E 011°14'1 6.7
2017-Jun-13 01:58N 54°34' E 011°13'3 6.8
2017-Jun-13 01:28N 54°36' E 011°08'3 6.6
2017-Jun-13 00:59N 54°37' E 011°03'3 6.2
2017-Jun-13 00:26N 54°39' E 010°58'3 6.6
2017-Jun-13 00:00N 54°41' E 010°54'4 6.6
2017-Jun-12 23:28N 54°44' E 010°52'3 7.1
2017-Jun-12 23:00N 54°47' E 010°52'4 7.7
2017-Jun-12 22:30N 54°51' E 010°52'4 7.6
2017-Jun-12 22:00N 54°55' E 010°54'4 7.1
2017-Jun-12 21:30N 54°58' E 010°58'5 6.6
2017-Jun-12 20:50N 55°02' E 011°01'9 6.8
2017-Jun-12 19:32N 55°10' E 011°03'0 6.3
2017-Jun-12 19:30N 55°10' E 011°03'8 6.2
2017-Jun-12 18:17N 55°18' E 011°02'  
Track history (hours):
 
Tides and Currents Weather Stations Pressure Air Temp Water Temp Dewpoint Dewpoint Depression Visibility Wind Speed Wind Dir Waves Ship Positions

Union Manta

Last reported at 2017-Jun-22 07:24 UTC. Time now 2017-Jun-23 10:33 UTC.
Position N 54°01' E 006°16'.

Length 75 m; draft 6.5 m.

Type: Tow > 200 m length. MMSI: 205340000.

Date/timePositionNaut miles runAvg speedWind from/ knotsBaromVisibWave heightAir tempDewpointWater temp
2017-Jun-22 07:24N 54°01' E 006°16'5 0.6
2017-Jun-21 22:55N 53°56' E 006°16'1 1.6
2017-Jun-21 22:19N 53°57' E 006°16'1 1.6
2017-Jun-21 21:57N 53°58' E 006°16'65 2.1
2017-Jun-20 14:47N 55°02' E 006°36'2 5.8
2017-Jun-20 14:30N 55°03' E 006°36'6 5.7
2017-Jun-20 13:25N 55°09' E 006°36'3 5.6
2017-Jun-20 12:50N 55°13' E 006°36'2 5.6
2017-Jun-20 12:30N 55°15' E 006°37'3 5.5
2017-Jun-20 12:00N 55°17' E 006°37'3 5.3
2017-Jun-20 11:28N 55°20' E 006°38'3 5.3
2017-Jun-20 10:58N 55°23' E 006°39'3 5.2
2017-Jun-20 10:28N 55°25' E 006°41'7 5.1
2017-Jun-20 09:07N 55°32' E 006°45'2 5.2
2017-Jun-20 08:43N 55°34' E 006°47'1 5.3
2017-Jun-20 08:28N 55°35' E 006°48'160 6.1
2017-Jun-19 06:28N 57°48' E 009°27'3 5.9
2017-Jun-19 06:00N 57°49' E 009°32'5 6.0
2017-Jun-19 05:13N 57°51' E 009°40'1 6.1
2017-Jun-19 04:58N 57°51' E 009°43'3 6.2
2017-Jun-19 04:29N 57°53' E 009°48'3 6.1
2017-Jun-19 04:00N 57°54' E 009°54'3 6.3
2017-Jun-19 03:30N 57°55' E 009°59'3 6.1
2017-Jun-19 03:00N 57°55' E 010°05'3 6.0
2017-Jun-19 02:30N 57°55' E 010°11'3 5.5
2017-Jun-19 02:00N 57°55' E 010°16'2 4.7
2017-Jun-19 01:29N 57°55' E 010°20'2 4.5
2017-Jun-19 01:00N 57°55' E 010°24'2 4.3
2017-Jun-19 00:30N 57°55' E 010°28'2 4.1
2017-Jun-19 00:00N 57°55' E 010°32'2 3.9
2017-Jun-18 23:30N 57°55' E 010°36'2 3.7
2017-Jun-18 23:00N 57°55' E 010°39'2 3.6
2017-Jun-18 22:30N 57°55' E 010°43'2 3.7
2017-Jun-18 22:00N 57°55' E 010°46'3 5.0
2017-Jun-18 21:30N 57°53' E 010°50'3 5.1
2017-Jun-18 21:00N 57°51' E 010°53'3 5.4
2017-Jun-18 20:30N 57°49' E 010°57'3 5.7
2017-Jun-18 20:00N 57°47' E 010°60'3 5.6
2017-Jun-18 19:30N 57°44' E 011°02'3 5.1
2017-Jun-18 19:00N 57°42' E 011°05'3 5.2
2017-Jun-18 18:30N 57°41' E 011°08'3 6.2
2017-Jun-18 18:00N 57°38' E 011°11'3 6.5
2017-Jun-18 17:30N 57°35' E 011°15'3 6.4
2017-Jun-18 17:00N 57°33' E 011°19'3 6.8
2017-Jun-18 16:30N 57°30' E 011°23'4 7.0
2017-Jun-18 15:59N 57°27' E 011°27'3 6.8
2017-Jun-18 15:30N 57°24' E 011°29'3 6.6
2017-Jun-18 15:00N 57°21' E 011°31'7 6.5
2017-Jun-18 13:59N 57°15' E 011°35'33 6.9
2017-Jun-18 09:12N 56°44' E 011°52'106 6.3
2017-Jun-17 16:21N 55°02' E 010°60'2 6.4
2017-Jun-17 16:00N 54°60' E 010°59'3 5.9
2017-Jun-17 15:30N 54°57' E 010°57'3 5.4
2017-Jun-17 15:00N 54°55' E 010°54'3 5.8
2017-Jun-17 14:30N 54°52' E 010°53'5 5.4
2017-Jun-17 13:30N 54°46' E 010°53'3 6.2
2017-Jun-17 13:00N 54°43' E 010°53'3 5.5
2017-Jun-17 12:30N 54°41' E 010°56'3 6.3
2017-Jun-17 12:00N 54°40' E 011°01'3 6.0
2017-Jun-17 11:30N 54°39' E 011°06'3 5.6
2017-Jun-17 11:00N 54°37' E 011°10'3 5.5
2017-Jun-17 10:30N 54°36' E 011°14'3 5.4
2017-Jun-17 10:00N 54°34' E 011°18'5 5.3
2017-Jun-17 08:59N 54°32' E 011°26'13 1.0
2017-Jun-16 19:32N 54°19' E 011°36'0 1.0
2017-Jun-16 19:30N 54°19' E 011°36'0 0.5
2017-Jun-16 19:00N 54°19' E 011°36'0 0.3
2017-Jun-16 18:30N 54°19' E 011°36'0 0.6
2017-Jun-16 18:00N 54°19' E 011°37'1 0.8
2017-Jun-16 17:02N 54°20' E 011°38'0 1.0
2017-Jun-16 17:00N 54°20' E 011°38'0 0.7
2017-Jun-16 16:30N 54°20' E 011°39'2 1.1
2017-Jun-16 15:02N 54°19' E 011°41'0 2.2
2017-Jun-16 15:00N 54°19' E 011°41'1 2.2
2017-Jun-16 14:30N 54°18' E 011°43'5 2.2
2017-Jun-16 12:17N 54°20' E 011°51'1 5.0
2017-Jun-16 12:00N 54°21' E 011°49'3 5.5
2017-Jun-16 11:30N 54°22' E 011°45'7 3.8
2017-Jun-16 09:47N 54°21' E 011°34'1 2.0
2017-Jun-16 09:30N 54°21' E 011°34'2 2.3
2017-Jun-16 08:47N 54°20' E 011°36'1 2.5
2017-Jun-16 08:30N 54°19' E 011°37'1 2.4
2017-Jun-16 08:00N 54°19' E 011°39'1 2.3
2017-Jun-16 07:30N 54°18' E 011°41'1 1.9
2017-Jun-16 07:00N 54°18' E 011°42'2 1.8
2017-Jun-16 06:02N 54°18' E 011°45'0 1.6
2017-Jun-16 06:00N 54°18' E 011°45'0 1.0
2017-Jun-16 05:30N 54°18' E 011°46'1 1.2
2017-Jun-16 05:00N 54°18' E 011°47'1 1.6
2017-Jun-16 04:18N 54°18' E 011°49'1 2.2
2017-Jun-16 04:00N 54°19' E 011°49'1 2.4
2017-Jun-16 03:30N 54°20' E 011°50'2 4.5
2017-Jun-16 03:00N 54°21' E 011°47'8 5.2
2017-Jun-16 01:32N 54°22' E 011°34'0 4.6
2017-Jun-16 01:30N 54°22' E 011°34'8 1.7
2017-Jun-15 20:45N 54°21' E 011°47'1 2.7
2017-Jun-15 20:26N 54°21' E 011°46'1 2.6
2017-Jun-15 19:59N 54°22' E 011°44'1 2.8
2017-Jun-15 19:30N 54°21' E 011°42'3 1.1
2017-Jun-15 16:47N 54°20' E 011°37'1 3.7
2017-Jun-15 16:30N 54°20' E 011°39'2 3.7
2017-Jun-15 16:00N 54°19' E 011°41'5 3.8
2017-Jun-15 14:46N 54°17' E 011°49'3 3.4
2017-Jun-15 13:47N 54°16' E 011°54'1 3.1
2017-Jun-15 13:26N 54°16' E 011°56'3 3.4
2017-Jun-15 12:41N 54°15' E 012°00'1 4.6
2017-Jun-15 12:28N 54°14' E 012°01'2 3.8
2017-Jun-15 11:59N 54°13' E 012°03'2 2.3
2017-Jun-15 10:55N 54°11' E 012°05'1 0.1
2017-Jun-15 01:01N 54°10' E 012°06'0 0.0
2017-Jun-15 00:25N 54°10' E 012°06'0 0.0
2017-Jun-14 21:31N 54°10' E 012°06'0 0.0
2017-Jun-14 21:01N 54°10' E 012°06'0 0.0
2017-Jun-14 14:12N 54°10' E 012°06'0 0.0
2017-Jun-14 12:42N 54°10' E 012°06'0 0.0
2017-Jun-14 12:30N 54°10' E 012°06'0 0.0
2017-Jun-13 13:15N 54°10' E 012°06'0 0.0
2017-Jun-13 13:00N 54°10' E 012°06'2 0.4
2017-Jun-13 08:09N 54°12' E 012°05'211.4
2017-Jun-13 08:00N 54°14' E 012°03'6 5.7
2017-Jun-13 07:01N 54°19' E 011°59'0 7.3
2017-Jun-13 07:00N 54°19' E 011°59'4 7.3
2017-Jun-13 06:30N 54°21' E 011°54'3 5.9
2017-Jun-13 06:00N 54°23' E 011°51'3 5.6
2017-Jun-13 05:30N 54°25' E 011°47'21 6.1
2017-Jun-13 02:05N 54°34' E 011°14'1 6.7
2017-Jun-13 01:58N 54°34' E 011°13'3 6.8
2017-Jun-13 01:28N 54°36' E 011°08'3 6.6
2017-Jun-13 00:59N 54°37' E 011°03'3 6.2
2017-Jun-13 00:26N 54°39' E 010°58'3 6.6
2017-Jun-13 00:00N 54°41' E 010°54'4 6.6
2017-Jun-12 23:28N 54°44' E 010°52'3 7.1
2017-Jun-12 23:00N 54°47' E 010°52'4 7.7
2017-Jun-12 22:30N 54°51' E 010°52'4 7.6
2017-Jun-12 22:00N 54°55' E 010°54'4 7.1
2017-Jun-12 21:30N 54°58' E 010°58'5 6.6
2017-Jun-12 20:50N 55°02' E 011°01'9 6.8
2017-Jun-12 19:32N 55°10' E 011°03'0 6.3
2017-Jun-12 19:30N 55°10' E 011°03'8 6.2
2017-Jun-12 18:17N 55°18' E 011°02'  

Dump ship's entire track history